Time;durP1;ratioP1;P1;durP2;ratioP2;P2;SDS_P1;SDS_P2;PMS_P1;PMS_P2;Temp;Humidity;BMP_temperature;BMP_pressure;BME280_temperature;BME280_humidity;BME280_pressure;Samples;Min_cycle;Max_cycle;Signal;HPM_P1;HPM_P2
2021/01/03 00:00:17;;;;;;;15.50;11.68;;;18.40;53.90;;;;;;4861790;29;20159;-49
2021/01/03 00:02:44;;;;;;;15.57;9.80;;;18.40;54.00;;;;;;4859877;29;20056;-49
2021/01/03 00:05:12;;;;;;;17.88;9.88;;;18.40;54.00;;;;;;4857251;29;20499;-50
2021/01/03 00:07:39;;;;;;;13.82;10.45;;;18.40;53.90;;;;;;4857977;29;20053;-54
2021/01/03 00:10:08;;;;;;;13.43;10.43;;;18.30;53.90;;;;;;4858979;29;20510;-48
2021/01/03 00:12:35;;;;;;;12.95;10.75;;;18.30;54.00;;;;;;4857311;29;20068;-53
2021/01/03 00:15:01;;;;;;;15.70;10.25;;;18.30;54.00;;;;;;4857861;29;20077;-50
2021/01/03 00:17:28;;;;;;;12.07;8.82;;;18.30;54.00;;;;;;4857804;29;20060;-51
2021/01/03 00:19:55;;;;;;;16.58;10.93;;;18.40;54.00;;;;;;4857850;29;20528;-52
2021/01/03 00:22:22;;;;;;;14.75;9.95;;;18.30;53.90;;;;;;4857941;29;20108;-53
2021/01/03 00:24:49;;;;;;;18.77;11.10;;;18.30;54.40;;;;;;4859095;29;20141;-54
2021/01/03 00:27:15;;;;;;;14.23;11.15;;;18.30;53.80;;;;;;4857902;29;20447;-54
2021/01/03 00:29:42;;;;;;;16.15;9.20;;;18.30;53.80;;;;;;4837579;29;20065;-54
2021/01/03 00:32:08;;;;;;;17.70;11.35;;;18.30;53.70;;;;;;4846818;29;20053;-51
2021/01/03 00:34:35;;;;;;;12.00;9.75;;;18.30;53.70;;;;;;4842770;29;20430;-51
2021/01/03 00:37:02;;;;;;;15.82;10.52;;;18.30;53.70;;;;;;4858999;29;20475;-50
2021/01/03 00:39:29;;;;;;;14.43;10.68;;;18.30;53.60;;;;;;4857748;29;20132;-54
2021/01/03 00:41:55;;;;;;;15.40;10.63;;;18.30;53.60;;;;;;4857486;29;20053;-50
2021/01/03 00:44:22;;;;;;;16.75;10.95;;;18.30;53.60;;;;;;4857655;29;20426;-51
2021/01/03 00:46:49;;;;;;;12.85;10.00;;;18.30;53.60;;;;;;4857669;29;20106;-50
2021/01/03 00:49:15;;;;;;;11.20;9.88;;;18.30;53.70;;;;;;4857615;29;20073;-52
2021/01/03 00:51:42;;;;;;;17.55;11.63;;;18.20;53.60;;;;;;4858356;29;20053;-52
2021/01/03 00:54:09;;;;;;;15.05;11.15;;;18.20;53.60;;;;;;4857557;29;20388;-52
2021/01/03 00:56:36;;;;;;;11.40;9.15;;;18.20;53.60;;;;;;4857269;29;20057;-52
2021/01/03 00:59:02;;;;;;;14.95;9.98;;;18.20;53.70;;;;;;4857417;29;20492;-55
2021/01/03 01:01:29;;;;;;;13.13;9.63;;;18.20;54.10;;;;;;4857020;29;20049;-54
2021/01/03 01:03:55;;;;;;;16.48;10.65;;;18.20;54.20;;;;;;4858452;29;20482;-51
2021/01/03 01:06:23;;;;;;;13.52;10.20;;;18.20;54.30;;;;;;4837771;29;20053;-52
2021/01/03 01:08:51;;;;;;;14.07;9.43;;;18.20;54.20;;;;;;4857251;29;20045;-46
2021/01/03 01:11:19;;;;;;;11.63;9.63;;;18.20;54.20;;;;;;4857342;29;20054;-53
2021/01/03 01:13:45;;;;;;;14.45;9.75;;;18.20;54.30;;;;;;4857007;29;20041;-47
2021/01/03 01:16:12;;;;;;;17.27;9.85;;;18.20;54.40;;;;;;4857074;29;20053;-48
2021/01/03 01:18:38;;;;;;;15.63;9.32;;;18.20;54.40;;;;;;4857043;29;20069;-48
2021/01/03 01:21:06;;;;;;;11.18;9.63;;;18.20;54.30;;;;;;4856841;29;20522;-51
2021/01/03 01:23:33;;;;;;;12.18;9.60;;;18.20;54.30;;;;;;4856695;29;20053;-52
2021/01/03 01:25:59;;;;;;;16.20;10.15;;;18.20;54.40;;;;;;4856818;29;20585;-48
2021/01/03 01:28:27;;;;;;;14.70;10.25;;;18.20;54.40;;;;;;4856903;29;20045;-52
2021/01/03 01:30:54;;;;;;;12.13;8.98;;;18.20;54.50;;;;;;4857448;29;20053;-58
2021/01/03 01:33:21;;;;;;;10.98;8.27;;;18.20;54.50;;;;;;4856612;29;20096;-54
2021/01/03 01:35:48;;;;;;;13.30;9.02;;;18.10;54.40;;;;;;4856385;29;20097;-57
2021/01/03 01:38:15;;;;;;;13.13;8.93;;;18.20;54.40;;;;;;4856034;29;20164;-51
2021/01/03 01:40:42;;;;;;;12.73;9.80;;;18.10;54.30;;;;;;4850930;29;20061;-48
2021/01/03 01:43:12;;;;;;;10.90;8.50;;;18.10;54.40;;;;;;4856987;29;20084;-47
2021/01/03 01:45:41;;;;;;;13.13;9.02;;;18.20;54.40;;;;;;4856943;29;20057;-49
2021/01/03 01:48:11;;;;;;;10.07;8.40;;;18.20;54.40;;;;;;4856451;29;20128;-52
2021/01/03 01:50:43;;;;;;;11.43;9.52;;;18.20;54.40;;;;;;4856230;29;20061;-52
2021/01/03 01:53:16;;;;;;;10.63;8.25;;;18.20;54.30;;;;;;4856339;29;20049;-53
2021/01/03 01:55:53;;;;;;;11.13;8.77;;;18.20;54.40;;;;;;4842560;29;20602;-52
2021/01/03 01:58:26;;;;;;;10.50;8.27;;;18.20;54.40;;;;;;4856150;29;20533;-54
2021/01/03 02:01:01;;;;;;;9.18;8.25;;;18.20;54.40;;;;;;4856105;29;20101;-49
2021/01/03 02:03:48;;;;;;;9.10;7.93;;;18.20;54.30;;;;;;4856186;29;20046;-50
2021/01/03 02:06:20;;;;;;;13.45;8.45;;;18.20;54.30;;;;;;4856069;29;20073;-49
2021/01/03 02:08:52;;;;;;;10.13;7.78;;;18.10;54.20;;;;;;4839486;29;20075;-49
2021/01/03 02:11:23;;;;;;;8.13;7.22;;;18.10;54.20;;;;;;4839577;29;20088;-49
2021/01/03 02:13:53;;;;;;;11.80;7.57;;;18.10;54.10;;;;;;4854973;29;20046;-50
2021/01/03 02:16:23;;;;;;;11.70;8.25;;;18.20;54.20;;;;;;4855141;29;20061;-50
2021/01/03 02:18:52;;;;;;;14.18;9.98;;;18.10;53.90;;;;;;4859051;29;20062;-55
2021/01/03 02:21:28;;;;;;;10.02;7.82;;;18.20;53.90;;;;;;4835764;29;20106;-53
2021/01/03 02:24:04;;;;;;;12.35;10.05;;;18.20;53.90;;;;;;4850228;29;20590;-52
2021/01/03 02:26:36;;;;;;;;;;;18.10;53.60;;;;;;4855301;29;20150;-50
2021/01/03 02:29:05;;;;;;;13.35;9.95;;;18.10;53.60;;;;;;4854299;29;19944;-53
2021/01/03 02:31:34;;;;;;;11.63;9.20;;;18.00;53.80;;;;;;4858406;29;20160;-52
2021/01/03 02:34:05;;;;;;;12.00;10.00;;;18.10;53.80;;;;;;4856656;29;20082;-49
2021/01/03 02:36:36;;;;;;;13.60;9.65;;;18.10;53.80;;;;;;4854836;29;20057;-53
2021/01/03 02:39:11;;;;;;;14.38;10.77;;;18.10;53.80;;;;;;4853297;29;20714;-50
2021/01/03 02:41:39;;;;;;;14.77;10.77;;;18.10;53.70;;;;;;4853385;29;20075;-49
2021/01/03 02:44:06;;;;;;;11.90;9.60;;;18.10;53.60;;;;;;4842717;29;20056;-46
2021/01/03 02:46:34;;;;;;;13.63;10.30;;;18.10;53.60;;;;;;4853151;29;20054;-54
2021/01/03 02:49:00;;;;;;;15.25;9.48;;;18.10;53.60;;;;;;4857901;29;20053;-49
2021/01/03 02:51:33;;;;;;;13.23;9.77;;;18.10;53.50;;;;;;4859227;29;20098;-52
2021/01/03 02:53:59;;;;;;;21.17;11.05;;;18.10;53.50;;;;;;4855622;29;20057;-51
2021/01/03 02:56:26;;;;;;;10.98;9.40;;;18.10;53.40;;;;;;4858909;29;20046;-51
2021/01/03 02:58:54;;;;;;;14.02;9.95;;;18.10;53.50;;;;;;4858889;29;20045;-53
2021/01/03 03:01:20;;;;;;;17.20;11.38;;;18.10;53.50;;;;;;4856889;29;20072;-48
2021/01/03 03:03:47;;;;;;;17.00;10.90;;;18.10;53.40;;;;;;4854037;29;20062;-60
2021/01/03 03:06:14;;;;;;;17.65;9.75;;;18.00;53.30;;;;;;4855665;29;20057;-51
2021/01/03 03:08:41;;;;;;;15.25;10.82;;;18.10;53.30;;;;;;4859087;29;20041;-54
2021/01/03 03:11:08;;;;;;;19.08;9.57;;;18.10;53.20;;;;;;4854205;29;20531;-56
2021/01/03 03:13:34;;;;;;;14.50;11.07;;;18.10;53.20;;;;;;4858248;29;20092;-50
2021/01/03 03:16:02;;;;;;;13.18;10.57;;;18.10;53.00;;;;;;4859845;29;20398;-48
2021/01/03 03:18:28;;;;;;;14.95;9.98;;;18.10;53.10;;;;;;4858745;29;20113;-49
2021/01/03 03:20:55;;;;;;;17.15;11.75;;;18.10;53.00;;;;;;4858307;29;20049;-50
2021/01/03 03:23:22;;;;;;;18.38;11.30;;;18.00;52.80;;;;;;4858961;29;20467;-51
2021/01/03 03:25:49;;;;;;;14.88;10.55;;;18.10;52.90;;;;;;4858601;29;20124;-50
2021/01/03 03:28:16;;;;;;;16.52;10.73;;;18.00;53.00;;;;;;4859118;29;20140;-49
2021/01/03 03:30:42;;;;;;;16.83;12.50;;;18.00;53.00;;;;;;4859523;29;20060;-52
2021/01/03 03:33:10;;;;;;;15.30;10.85;;;18.00;52.90;;;;;;4857347;29;20042;-51
2021/01/03 03:35:38;;;;;;;16.98;12.00;;;18.00;52.90;;;;;;4858714;29;20076;-51
2021/01/03 03:38:06;;;;;;;15.55;10.82;;;18.00;52.90;;;;;;4858795;29;20060;-48
2021/01/03 03:40:33;;;;;;;14.82;10.10;;;18.00;53.00;;;;;;4858363;29;20046;-49
2021/01/03 03:43:00;;;;;;;19.15;11.05;;;18.00;53.00;;;;;;4859825;29;20064;-51
2021/01/03 03:45:26;;;;;;;20.17;11.63;;;18.00;53.00;;;;;;4858470;29;20057;-48
2021/01/03 03:47:53;;;;;;;18.08;11.23;;;18.00;53.00;;;;;;4858383;29;20045;-52
2021/01/03 03:50:22;;;;;;;18.25;11.40;;;18.00;53.00;;;;;;4858628;29;20128;-52
2021/01/03 03:52:49;;;;;;;14.40;10.80;;;18.00;53.10;;;;;;4858570;29;20049;-52
2021/01/03 03:55:16;;;;;;;16.27;10.38;;;18.00;52.90;;;;;;4857850;29;20073;-47
2021/01/03 03:57:43;;;;;;;12.93;10.30;;;18.00;52.90;;;;;;4854190;29;20053;-48
2021/01/03 04:00:12;;;;;;;15.13;11.10;;;18.00;52.80;;;;;;4854284;29;20076;-55
2021/01/03 04:02:41;;;;;;;15.10;10.98;;;18.00;52.80;;;;;;4857246;29;20467;-47
2021/01/03 04:05:10;;;;;;;18.58;12.63;;;18.00;52.80;;;;;;4858010;29;20054;-57
2021/01/03 04:07:38;;;;;;;18.50;12.70;;;18.00;52.70;;;;;;4847357;29;20048;-51
2021/01/03 04:10:06;;;;;;;17.77;11.43;;;18.00;52.70;;;;;;4843835;29;20145;-47
2021/01/03 04:12:33;;;;;;;15.93;11.07;;;18.00;52.70;;;;;;4857121;29;20057;-48
2021/01/03 04:14:59;;;;;;;16.30;11.73;;;18.00;52.70;;;;;;4856852;29;20046;-48
2021/01/03 04:17:26;;;;;;;16.02;12.05;;;17.90;52.50;;;;;;4856863;29;20214;-54
2021/01/03 04:19:52;;;;;;;17.75;10.90;;;17.90;52.60;;;;;;4857663;29;20045;-47
2021/01/03 04:22:19;;;;;;;17.70;12.45;;;17.90;52.70;;;;;;4857128;29;20406;-47
2021/01/03 04:24:46;;;;;;;20.92;12.55;;;17.90;52.70;;;;;;4855794;29;20064;-50
2021/01/03 04:27:13;;;;;;;16.20;11.20;;;17.90;52.70;;;;;;4855166;29;20053;-51
2021/01/03 04:29:40;;;;;;;18.48;12.13;;;17.90;52.80;;;;;;4852794;29;20077;-51
2021/01/03 04:32:09;;;;;;;25.08;13.23;;;17.90;52.80;;;;;;4856778;29;20074;-52
2021/01/03 04:34:37;;;;;;;14.38;10.77;;;17.90;52.70;;;;;;4840505;29;20073;-49
2021/01/03 04:37:04;;;;;;;16.17;11.20;;;17.90;52.70;;;;;;4848498;29;20129;-47
2021/01/03 04:39:31;;;;;;;18.92;12.82;;;17.90;52.80;;;;;;4856150;29;20581;-48
2021/01/03 04:42:01;;;;;;;17.17;11.43;;;17.90;52.80;;;;;;4857300;29;20502;-52
2021/01/03 04:44:33;;;;;;;18.85;12.50;;;17.90;52.70;;;;;;4862605;29;20474;-60
2021/01/03 04:47:04;;;;;;;18.27;11.35;;;17.90;52.70;;;;;;4861864;29;20057;-49
2021/01/03 04:49:39;;;;;;;16.90;11.45;;;17.90;52.70;;;;;;4857580;29;20113;-50
2021/01/03 04:52:29;;;;;;;17.95;11.57;;;17.90;52.80;;;;;;4861564;29;20061;-48
2021/01/03 04:55:13;;;;;;;14.07;11.00;;;17.90;52.80;;;;;;4806107;29;20063;-48
2021/01/03 04:57:49;;;;;;;17.80;12.68;;;17.90;52.90;;;;;;4804363;29;20541;-56
2021/01/03 05:00:18;;;;;;;18.17;11.15;;;17.90;52.90;;;;;;4802580;29;20054;-50
2021/01/03 05:03:23;;;;;;;14.90;10.40;;;17.90;52.90;;;;;;4803715;29;20056;-50
2021/01/03 05:05:51;;;;;;;16.45;11.52;;;17.90;53.00;;;;;;4801033;29;20046;-49
2021/01/03 05:08:32;;;;;;;15.73;12.02;;;17.80;53.00;;;;;;4800904;29;21294;-50
2021/01/03 05:11:03;;;;;;;15.45;10.45;;;17.90;53.00;;;;;;4798583;29;20497;-52
2021/01/03 05:13:40;;;;;;;18.30;10.23;;;17.90;53.10;;;;;;4796430;29;20086;-53
2021/01/03 05:16:09;;;;;;;13.10;10.52;;;17.90;53.10;;;;;;4798089;29;20659;-51
2021/01/03 05:18:36;;;;;;;12.32;8.90;;;17.90;53.10;;;;;;4797850;29;20078;-53
2021/01/03 05:21:06;;;;;;;12.98;8.88;;;17.90;53.20;;;;;;4796894;29;20673;-54
2021/01/03 05:23:35;;;;;;;11.95;7.38;;;17.90;53.10;;;;;;4797207;29;20079;-52
2021/01/03 05:26:04;;;;;;;8.65;7.03;;;17.90;53.10;;;;;;4795699;29;20116;-47
2021/01/03 05:28:34;;;;;;;10.45;7.32;;;17.90;53.10;;;;;;4797160;29;20835;-47
2021/01/03 05:31:14;;;;;;;15.23;8.02;;;17.90;53.10;;;;;;4801919;29;20516;-50
2021/01/03 05:33:51;;;;;;;9.25;6.38;;;17.90;53.10;;;;;;4855733;29;20053;-47
2021/01/03 05:36:41;;;;;;;9.73;6.80;;;17.90;53.60;;;;;;4853479;29;20048;-49
2021/01/03 05:39:27;;;;;;;8.60;6.45;;;17.90;53.10;;;;;;4853521;29;20046;-48
2021/01/03 05:42:04;;;;;;;6.45;5.20;;;17.90;53.00;;;;;;4855442;29;20053;-49
2021/01/03 05:44:34;;;;;;;9.00;5.72;;;17.80;52.90;;;;;;4858448;29;20045;-50
2021/01/03 05:47:13;;;;;;;11.68;5.60;;;17.90;53.00;;;;;;4856524;29;20096;-49
2021/01/03 05:49:39;;;;;;;8.85;5.97;;;17.90;53.60;;;;;;4849464;29;20046;-51
2021/01/03 05:52:14;;;;;;;6.63;5.05;;;17.90;53.00;;;;;;4856331;29;20502;-49
2021/01/03 05:54:41;;;;;;;5.95;5.45;;;17.90;53.00;;;;;;4859663;29;20068;-51
2021/01/03 05:57:19;;;;;;;7.07;5.65;;;17.90;52.90;;;;;;4861275;29;20057;-53
2021/01/03 05:59:46;;;;;;;6.88;5.43;;;17.90;52.90;;;;;;4859896;29;20049;-46
2021/01/03 06:02:19;;;;;;;5.88;5.05;;;17.90;52.90;;;;;;4856075;29;20041;-50
2021/01/03 06:04:46;;;;;;;9.00;4.53;;;17.90;52.80;;;;;;4858182;29;20049;-48
2021/01/03 06:07:25;;;;;;;5.70;5.15;;;17.90;52.80;;;;;;4862046;29;20096;-57
2021/01/03 06:09:51;;;;;;;4.25;3.85;;;17.90;52.90;;;;;;4858210;29;20053;-49
2021/01/03 06:12:20;;;;;;;6.18;5.53;;;17.90;52.90;;;;;;4859403;29;20441;-47
2021/01/03 06:14:51;;;;;;;6.28;5.35;;;17.90;52.80;;;;;;4860264;29;20045;-47
2021/01/03 06:17:30;;;;;;;5.35;4.85;;;17.90;52.80;;;;;;4859762;29;20057;-54
2021/01/03 06:20:04;;;;;;;5.25;4.43;;;17.90;52.80;;;;;;4840584;29;20100;-53
2021/01/03 06:22:44;;;;;;;7.07;5.40;;;17.90;52.70;;;;;;4843089;29;20053;-52
2021/01/03 06:25:31;;;;;;;6.97;4.55;;;17.90;52.70;;;;;;4861921;29;20109;-51
2021/01/03 06:28:08;;;;;;;5.10;4.60;;;17.90;52.70;;;;;;4856585;29;20057;-51
2021/01/03 06:30:36;;;;;;;5.03;4.63;;;17.90;52.70;;;;;;4859829;29;20068;-49
2021/01/03 06:33:31;;;;;;;12.85;6.65;;;17.90;52.70;;;;;;4855124;29;20573;-48
2021/01/03 06:36:05;;;;;;;4.80;3.90;;;17.90;52.80;;;;;;4859195;29;20580;-52
2021/01/03 06:38:53;;;;;;;5.05;4.10;;;17.90;52.80;;;;;;4857858;29;20049;-50
2021/01/03 06:41:44;;;;;;;5.65;3.75;;;17.90;52.70;;;;;;4851424;29;20065;-52
2021/01/03 06:44:53;;;;;;;5.18;4.68;;;17.90;52.80;;;;;;4861416;29;20041;-51
2021/01/03 06:48:03;;;;;;;4.55;3.85;;;17.90;52.70;;;;;;4856717;29;20104;-47
2021/01/03 06:51:00;;;;;;;6.15;4.80;;;17.90;52.80;;;;;;4854082;29;20058;-49
2021/01/03 06:53:57;;;;;;;4.22;3.92;;;17.90;52.70;;;;;;4851424;29;20057;-53
2021/01/03 06:56:47;;;;;;;6.43;4.43;;;17.90;52.80;;;;;;4856847;29;20054;-51
2021/01/03 06:59:34;;;;;;;6.10;4.63;;;17.90;53.00;;;;;;4834040;29;20053;-51
2021/01/03 07:02:00;;;;;;;4.03;3.35;;;17.90;52.90;;;;;;4855304;29;20105;-53
2021/01/03 07:04:30;;;;;;;4.18;3.78;;;17.80;52.80;;;;;;4856491;29;20049;-50
2021/01/03 07:07:01;;;;;;;14.10;5.03;;;17.90;52.80;;;;;;4860785;29;20057;-49
2021/01/03 07:09:29;;;;;;;6.30;5.13;;;17.90;52.80;;;;;;4858830;29;20060;-55
2021/01/03 07:11:57;;;;;;;5.65;4.45;;;17.80;52.70;;;;;;4857353;29;20116;-48
2021/01/03 07:14:53;;;;;;;5.07;4.10;;;17.90;52.70;;;;;;4855145;29;20060;-50
2021/01/03 07:17:44;;;;;;;8.88;4.82;;;17.90;52.70;;;;;;4841690;29;20053;-58
2021/01/03 07:20:12;;;;;;;5.22;4.72;;;17.90;52.70;;;;;;4852642;29;20053;-54
2021/01/03 07:23:01;;;;;;;5.20;4.28;;;17.80;52.70;;;;;;4853325;29;20129;-51
2021/01/03 07:25:37;;;;;;;5.85;4.68;;;17.80;52.70;;;;;;4858667;29;20628;-54
2021/01/03 07:28:11;;;;;;;;;;;17.80;52.80;;;;;;4860954;29;20515;-53
2021/01/03 07:30:44;;;;;;;5.75;4.72;;;17.80;52.70;;;;;;4858499;29;19924;-50
2021/01/03 07:33:23;;;;;;;5.32;4.07;;;17.80;52.90;;;;;;4854694;29;20053;-49
2021/01/03 07:35:49;;;;;;;5.05;4.05;;;17.80;53.00;;;;;;4837641;29;20045;-51
2021/01/03 07:38:28;;;;;;;5.63;4.88;;;17.80;52.90;;;;;;4859001;29;20124;-48
2021/01/03 07:41:04;;;;;;;9.40;4.30;;;17.80;52.90;;;;;;4859341;29;20049;-52
2021/01/03 07:43:57;;;;;;;5.45;4.75;;;17.80;52.80;;;;;;4863679;29;20045;-47
2021/01/03 07:46:49;;;;;;;7.07;4.78;;;17.80;52.80;;;;;;4856078;29;20407;-49
2021/01/03 07:49:41;;;;;;;5.63;4.07;;;17.80;52.90;;;;;;4859362;29;20136;-49
2021/01/03 07:52:39;;;;;;;7.20;4.57;;;17.80;52.50;;;;;;4862558;29;20053;-49
2021/01/03 07:55:21;;;;;;;6.28;4.22;;;17.80;53.00;;;;;;4855552;29;20065;-48
2021/01/03 07:57:53;;;;;;;5.45;4.22;;;17.80;53.00;;;;;;4863241;29;20517;-52
2021/01/03 08:00:22;;;;;;;4.78;4.25;;;17.70;53.00;;;;;;4857585;29;20049;-51
2021/01/03 08:02:50;;;;;;;6.30;5.43;;;17.80;53.00;;;;;;4857295;29;20678;-55
2021/01/03 08:05:22;;;;;;;4.63;4.10;;;17.80;53.00;;;;;;4839376;29;20079;-47
2021/01/03 08:07:49;;;;;;;4.07;3.47;;;17.80;53.00;;;;;;4856096;29;20096;-51
2021/01/03 08:10:16;;;;;;;6.63;4.68;;;17.80;53.60;;;;;;4853343;29;20050;-47
2021/01/03 08:12:47;;;;;;;4.65;4.07;;;17.80;53.20;;;;;;4856451;29;20050;-49
2021/01/03 08:15:28;;;;;;;6.68;4.03;;;17.80;53.40;;;;;;4853475;29;20057;-52
2021/01/03 08:18:02;;;;;;;4.43;4.03;;;17.80;53.40;;;;;;4854156;29;20514;-60
2021/01/03 08:20:29;;;;;;;4.78;4.38;;;17.80;53.60;;;;;;4854042;29;20057;-51
2021/01/03 08:23:15;;;;;;;5.97;3.97;;;17.80;53.60;;;;;;4854241;29;20071;-54
2021/01/03 08:25:42;;;;;;;5.90;4.45;;;17.90;53.70;;;;;;4838005;29;20057;-47
2021/01/03 08:28:14;;;;;;;4.85;4.20;;;17.80;53.70;;;;;;4851744;29;20744;-54
2021/01/03 08:30:41;;;;;;;10.27;6.60;;;17.80;53.80;;;;;;4860385;29;20510;-48
2021/01/03 08:33:14;;;;;;;7.63;5.85;;;17.90;52.00;;;;;;4861376;29;20136;-55
2021/01/03 08:35:41;;;;;;;6.38;5.78;;;17.90;50.20;;;;;;4861506;29;20053;-46
2021/01/03 08:38:08;;;;;;;9.48;6.35;;;17.80;49.00;;;;;;4857407;29;20190;-46
2021/01/03 08:40:37;;;;;;;13.02;7.05;;;17.80;48.10;;;;;;4857203;29;20057;-46
2021/01/03 08:43:10;;;;;;;8.95;6.78;;;17.80;47.40;;;;;;4864127;29;20109;-48
2021/01/03 08:45:39;;;;;;;9.95;7.30;;;17.70;46.80;;;;;;4861329;29;20046;-52
2021/01/03 08:48:10;;;;;;;14.15;8.52;;;17.70;46.40;;;;;;4843607;29;20042;-47
2021/01/03 08:50:40;;;;;;;11.30;7.43;;;17.60;45.90;;;;;;4860088;29;20533;-47
2021/01/03 08:53:09;;;;;;;11.05;7.68;;;17.50;45.70;;;;;;4847605;29;20045;-45
2021/01/03 08:55:38;;;;;;;13.75;7.72;;;17.40;45.50;;;;;;4857253;29;20085;-45
2021/01/03 08:58:08;;;;;;;9.95;7.43;;;17.30;45.40;;;;;;4860683;29;20042;-46
2021/01/03 09:00:39;;;;;;;21.27;8.55;;;17.30;45.40;;;;;;4865298;29;20132;-45
2021/01/03 09:03:16;;;;;;;15.05;7.78;;;17.20;45.40;;;;;;4855844;29;20053;-45
2021/01/03 09:05:44;;;;;;;16.05;9.10;;;17.10;45.50;;;;;;4860993;29;20041;-45
2021/01/03 09:08:15;;;;;;;14.57;8.70;;;17.00;45.60;;;;;;4860230;29;20509;-46
2021/01/03 09:10:43;;;;;;;12.85;9.23;;;16.90;45.70;;;;;;4850755;29;20599;-50
2021/01/03 09:13:19;;;;;;;12.27;8.25;;;16.90;45.80;;;;;;4858815;29;20056;-49
2021/01/03 09:15:58;;;;;;;11.65;9.27;;;16.80;45.90;;;;;;4863767;29;20073;-50
2021/01/03 09:18:35;;;;;;;15.48;9.02;;;16.80;46.10;;;;;;4860750;29;20094;-50
2021/01/03 09:21:05;;;;;;;15.20;9.00;;;16.70;46.10;;;;;;4858332;29;20061;-56
2021/01/03 09:23:36;;;;;;;15.32;10.98;;;16.70;46.20;;;;;;4855229;29;20050;-51
2021/01/03 09:26:02;;;;;;;12.02;9.10;;;16.60;46.30;;;;;;4859523;29;20052;-46
2021/01/03 09:28:32;;;;;;;14.75;10.18;;;16.60;46.50;;;;;;4857118;29;20679;-54
2021/01/03 09:31:15;;;;;;;12.60;10.00;;;16.60;46.30;;;;;;4859546;29;20526;-58
2021/01/03 09:33:51;;;;;;;17.70;10.70;;;16.60;46.40;;;;;;4859781;29;20053;-53
2021/01/03 09:36:43;;;;;;;12.68;9.10;;;16.50;47.30;;;;;;4856296;29;20399;-48
2021/01/03 09:39:40;;;;;;;12.48;9.32;;;16.50;46.70;;;;;;4857260;29;20045;-53
2021/01/03 09:42:33;;;;;;;14.13;9.18;;;16.40;46.70;;;;;;4860175;29;20060;-49
2021/01/03 09:45:27;;;;;;;15.15;9.80;;;16.40;46.50;;;;;;4859908;29;20054;-49
2021/01/03 09:47:54;;;;;;;14.85;9.15;;;16.30;46.20;;;;;;4855277;29;20080;-50
2021/01/03 09:50:27;;;;;;;14.80;8.80;;;16.30;46.20;;;;;;4838849;29;20081;-47
2021/01/03 09:53:11;;;;;;;13.77;8.18;;;16.30;46.10;;;;;;4857687;29;20053;-49
2021/01/03 09:55:45;;;;;;;15.55;9.75;;;16.20;46.20;;;;;;4855870;29;20136;-48
2021/01/03 09:58:12;;;;;;;15.23;9.15;;;16.20;46.10;;;;;;4854857;29;20067;-51
2021/01/03 10:00:53;;;;;;;12.57;9.02;;;16.10;46.00;;;;;;4855339;29;20080;-49
2021/01/03 10:03:24;;;;;;;14.35;10.27;;;16.10;46.10;;;;;;4853348;29;20061;-52
2021/01/03 10:05:54;;;;;;;16.02;10.02;;;16.10;46.10;;;;;;4855004;29;20058;-47
2021/01/03 10:08:27;;;;;;;18.20;10.82;;;16.00;46.00;;;;;;4856821;29;20065;-47
2021/01/03 10:10:56;;;;;;;15.50;8.80;;;16.00;45.80;;;;;;4859480;29;20128;-50
2021/01/03 10:13:25;;;;;;;13.38;9.00;;;16.00;46.10;;;;;;4857722;29;20411;-49
2021/01/03 10:15:52;;;;;;;16.20;10.57;;;16.00;46.30;;;;;;4857978;29;20537;-48
2021/01/03 10:18:33;;;;;;;14.70;10.00;;;15.90;46.10;;;;;;4860361;29;20060;-49
2021/01/03 10:21:17;;;;;;;17.00;10.43;;;16.00;46.00;;;;;;4859316;29;20057;-48
2021/01/03 10:23:44;;;;;;;18.67;10.93;;;15.90;45.90;;;;;;4859350;29;20052;-48
2021/01/03 10:26:19;;;;;;;15.38;9.45;;;15.90;45.80;;;;;;4855348;29;20057;-47
2021/01/03 10:28:46;;;;;;;12.68;7.82;;;15.80;45.70;;;;;;4851821;29;20045;-52
2021/01/03 10:31:13;;;;;;;11.93;7.85;;;15.80;46.60;;;;;;4858984;29;20053;-53
2021/01/03 10:33:39;;;;;;;14.50;7.82;;;15.80;48.00;;;;;;4860736;29;20060;-51
2021/01/03 10:36:07;;;;;;;12.88;7.38;;;15.90;49.10;;;;;;4861225;29;20135;-50
2021/01/03 10:38:34;;;;;;;13.05;7.47;;;15.90;49.80;;;;;;4854903;29;20060;-52
2021/01/03 10:41:02;;;;;;;11.88;6.82;;;16.00;50.30;;;;;;4854905;29;20583;-49
2021/01/03 10:43:28;;;;;;;10.73;7.07;;;16.10;50.80;;;;;;4842770;29;20445;-51
2021/01/03 10:45:55;;;;;;;19.08;8.65;;;16.20;51.10;;;;;;4862839;29;20057;-50
2021/01/03 10:48:22;;;;;;;96.95;34.75;;;16.30;51.40;;;;;;4859081;29;20053;-50
2021/01/03 10:50:49;;;;;;;57.90;26.30;;;16.30;51.40;;;;;;4854201;29;20037;-54
2021/01/03 10:53:17;;;;;;;61.55;28.88;;;16.40;51.50;;;;;;4854854;29;20074;-46
2021/01/03 10:55:43;;;;;;;59.47;25.40;;;16.50;51.50;;;;;;4855400;29;20050;-48
2021/01/03 10:58:10;;;;;;;61.78;23.95;;;16.60;51.40;;;;;;4849334;29;20079;-50
2021/01/03 11:00:37;;;;;;;54.35;24.63;;;16.70;51.40;;;;;;4855179;29;20128;-50
2021/01/03 11:03:03;;;;;;;59.05;21.98;;;16.80;51.30;;;;;;4849458;29;20058;-51
2021/01/03 11:05:30;;;;;;;52.20;22.33;;;16.80;51.20;;;;;;4846992;29;20079;-50
2021/01/03 11:07:59;;;;;;;50.60;22.80;;;16.90;51.10;;;;;;4854544;29;20057;-49
2021/01/03 11:10:27;;;;;;;50.55;19.48;;;17.00;51.00;;;;;;4852001;29;20052;-48
2021/01/03 11:12:54;;;;;;;58.10;23.45;;;17.00;50.80;;;;;;4859111;29;20525;-51
2021/01/03 11:15:20;;;;;;;48.28;19.48;;;17.00;51.00;;;;;;4854745;29;20129;-55
2021/01/03 11:17:47;;;;;;;46.80;21.38;;;17.10;51.00;;;;;;4852023;29;20124;-49
2021/01/03 11:20:14;;;;;;;40.95;18.48;;;17.20;51.00;;;;;;4856302;29;20057;-55
2021/01/03 11:22:41;;;;;;;48.92;19.15;;;17.20;50.80;;;;;;4857978;29;20065;-52
2021/01/03 11:25:11;;;;;;;46.85;18.30;;;17.20;50.70;;;;;;4859689;29;20053;-47
2021/01/03 11:27:38;;;;;;;44.03;19.25;;;17.30;50.60;;;;;;4855443;29;20049;-52
2021/01/03 11:30:07;;;;;;;54.45;20.02;;;17.40;50.60;;;;;;4855182;29;20073;-47
2021/01/03 11:32:33;;;;;;;49.15;19.42;;;17.40;50.50;;;;;;4857232;29;20057;-48
2021/01/03 11:35:00;;;;;;;37.58;16.58;;;17.40;50.30;;;;;;4856461;29;22970;-56
2021/01/03 11:37:29;;;;;;;41.38;16.73;;;17.50;50.30;;;;;;4857047;29;20050;-53
2021/01/03 11:39:56;;;;;;;37.63;15.55;;;17.50;50.20;;;;;;4858879;29;20048;-50
2021/01/03 11:42:29;;;;;;;45.53;15.52;;;17.50;50.10;;;;;;4855221;29;20069;-52
2021/01/03 11:44:57;;;;;;;33.40;15.57;;;17.50;50.00;;;;;;4856941;29;20045;-50
2021/01/03 11:47:25;;;;;;;31.45;15.88;;;17.60;49.90;;;;;;4857655;29;20430;-50
2021/01/03 11:49:51;;;;;;;38.15;15.70;;;17.70;49.80;;;;;;4852512;29;20076;-53
2021/01/03 11:52:18;;;;;;;36.78;14.70;;;17.60;49.70;;;;;;4849513;29;20053;-54
2021/01/03 11:54:45;;;;;;;34.30;13.07;;;17.70;50.20;;;;;;4855051;29;20070;-51
2021/01/03 11:57:12;;;;;;;27.95;13.05;;;17.70;49.50;;;;;;4823168;29;20061;-49
2021/01/03 11:59:38;;;;;;;36.90;14.48;;;17.70;50.00;;;;;;4855630;29;20056;-54
2021/01/03 12:02:09;;;;;;;35.67;15.43;;;17.70;49.30;;;;;;4856656;29;20470;-49
2021/01/03 12:04:37;;;;;;;35.70;14.07;;;17.80;49.30;;;;;;4850873;29;20514;-47
2021/01/03 12:07:06;;;;;;;34.65;13.80;;;17.70;49.20;;;;;;4858223;29;20045;-47
2021/01/03 12:09:33;;;;;;;28.70;12.63;;;17.80;49.10;;;;;;4856614;29;20140;-47
2021/01/03 12:12:02;;;;;;;28.30;12.57;;;17.80;49.10;;;;;;4854575;29;20050;-47
2021/01/03 12:14:29;;;;;;;25.65;13.38;;;17.80;49.00;;;;;;4847967;29;20053;-52
2021/01/03 12:16:57;;;;;;;29.25;13.35;;;17.90;49.00;;;;;;4855897;29;20042;-48
2021/01/03 12:19:26;;;;;;;37.55;13.45;;;17.90;48.90;;;;;;4857770;29;20053;-47
2021/01/03 12:21:55;;;;;;;28.05;12.75;;;17.90;48.80;;;;;;4856489;29;20493;-47
2021/01/03 12:24:21;;;;;;;26.75;11.55;;;17.90;48.70;;;;;;4854140;29;20049;-50
2021/01/03 12:26:48;;;;;;;20.70;11.23;;;17.90;48.60;;;;;;4855929;29;20061;-53
2021/01/03 12:29:16;;;;;;;25.92;12.65;;;17.90;48.50;;;;;;4857157;29;20764;-46
2021/01/03 12:31:45;;;;;;;23.33;11.80;;;18.00;48.60;;;;;;4857155;29;20084;-50
2021/01/03 12:34:14;;;;;;;23.63;11.60;;;18.00;48.60;;;;;;4844203;29;20160;-51
2021/01/03 12:36:42;;;;;;;25.98;11.75;;;18.00;48.50;;;;;;4857784;29;20101;-46
2021/01/03 12:39:12;;;;;;;21.63;12.93;;;18.00;48.40;;;;;;4860236;29;20491;-52
2021/01/03 12:41:39;;;;;;;20.65;11.45;;;18.00;48.40;;;;;;4849261;29;20049;-48
2021/01/03 12:44:07;;;;;;;18.73;11.32;;;18.00;48.30;;;;;;4846166;29;20053;-47
2021/01/03 12:46:36;;;;;;;17.75;11.27;;;18.00;48.30;;;;;;4856199;29;20069;-47
2021/01/03 12:49:04;;;;;;;21.70;10.32;;;18.10;48.90;;;;;;4858485;29;20054;-50
2021/01/03 12:51:31;;;;;;;24.20;10.82;;;18.00;48.20;;;;;;4857081;29;20049;-49
2021/01/03 12:53:59;;;;;;;23.25;11.18;;;18.10;48.20;;;;;;4857091;29;20064;-50
2021/01/03 12:56:26;;;;;;;23.85;10.50;;;18.10;48.10;;;;;;4857274;29;20056;-48